sensor_id;sensor_type;location;lat;lon;timestamp;pressure;altitude;pressure_sealevel;temperature
74321;BMP280;62738;45.772;4.804;2023-07-13T00:01:32;99833.13;;;24.07
74321;BMP280;62738;45.772;4.804;2023-07-13T00:03:59;99833.69;;;24.27
74321;BMP280;62738;45.772;4.804;2023-07-13T00:06:26;99836.53;;;24.52
74321;BMP280;62738;45.772;4.804;2023-07-13T00:08:57;99842.50;;;24.13
74321;BMP280;62738;45.772;4.804;2023-07-13T00:11:23;99830.88;;;24.03
74321;BMP280;62738;45.772;4.804;2023-07-13T00:13:51;99827.53;;;24.34
74321;BMP280;62738;45.772;4.804;2023-07-13T00:16:17;99822.16;;;24.46
74321;BMP280;62738;45.772;4.804;2023-07-13T00:18:46;99820.84;;;24.24
74321;BMP280;62738;45.772;4.804;2023-07-13T00:21:13;99814.94;;;24.41
74321;BMP280;62738;45.772;4.804;2023-07-13T00:23:41;99812.34;;;24.24
74321;BMP280;62738;45.772;4.804;2023-07-13T00:26:09;99815.22;;;24.26
74321;BMP280;62738;45.772;4.804;2023-07-13T00:28:38;99818.25;;;24.08
74321;BMP280;62738;45.772;4.804;2023-07-13T00:31:05;99814.19;;;24.15
74321;BMP280;62738;45.772;4.804;2023-07-13T00:33:34;99820.00;;;23.95
74321;BMP280;62738;45.772;4.804;2023-07-13T00:36:02;99813.91;;;23.81
74321;BMP280;62738;45.772;4.804;2023-07-13T00:38:29;99819.94;;;23.70
74321;BMP280;62738;45.772;4.804;2023-07-13T00:40:56;99818.25;;;23.84
74321;BMP280;62738;45.772;4.804;2023-07-13T00:43:26;99813.16;;;24.28
74321;BMP280;62738;45.772;4.804;2023-07-13T00:48:27;99812.63;;;23.86
74321;BMP280;62738;45.772;4.804;2023-07-13T00:50:57;99817.72;;;23.90
74321;BMP280;62738;45.772;4.804;2023-07-13T00:53:26;99817.72;;;23.44
74321;BMP280;62738;45.772;4.804;2023-07-13T00:55:55;99823.06;;;23.80
74321;BMP280;62738;45.772;4.804;2023-07-13T00:58:26;99827.06;;;23.71
74321;BMP280;62738;45.772;4.804;2023-07-13T01:03:29;99828.81;;;24.06
74321;BMP280;62738;45.772;4.804;2023-07-13T01:05:56;99841.63;;;24.09
74321;BMP280;62738;45.772;4.804;2023-07-13T01:08:23;99838.03;;;24.30
74321;BMP280;62738;45.772;4.804;2023-07-13T01:10:55;99834.94;;;24.22
74321;BMP280;62738;45.772;4.804;2023-07-13T01:13:22;99837.94;;;23.80
74321;BMP280;62738;45.772;4.804;2023-07-13T01:15:51;99843.69;;;23.82
74321;BMP280;62738;45.772;4.804;2023-07-13T01:18:23;99836.28;;;23.95
74321;BMP280;62738;45.772;4.804;2023-07-13T01:21:02;99832.84;;;23.98
74321;BMP280;62738;45.772;4.804;2023-07-13T01:23:30;99832.00;;;23.94
74321;BMP280;62738;45.772;4.804;2023-07-13T01:25:58;99839.78;;;23.26
74321;BMP280;62738;45.772;4.804;2023-07-13T01:28:26;99831.34;;;23.07
74321;BMP280;62738;45.772;4.804;2023-07-13T01:30:55;99829.22;;;22.85
74321;BMP280;62738;45.772;4.804;2023-07-13T01:33:24;99838.75;;;22.76
74321;BMP280;62738;45.772;4.804;2023-07-13T01:35:51;99839.13;;;22.86
74321;BMP280;62738;45.772;4.804;2023-07-13T01:38:21;99855.09;;;22.78
74321;BMP280;62738;45.772;4.804;2023-07-13T01:40:50;99852.28;;;22.78
74321;BMP280;62738;45.772;4.804;2023-07-13T01:43:18;99849.28;;;22.74
74321;BMP280;62738;45.772;4.804;2023-07-13T01:45:45;99856.75;;;22.85
74321;BMP280;62738;45.772;4.804;2023-07-13T01:48:13;99864.50;;;23.04
74321;BMP280;62738;45.772;4.804;2023-07-13T01:50:40;99872.72;;;23.18
74321;BMP280;62738;45.772;4.804;2023-07-13T01:53:06;99876.16;;;23.14
74321;BMP280;62738;45.772;4.804;2023-07-13T01:55:34;99881.41;;;23.43
74321;BMP280;62738;45.772;4.804;2023-07-13T01:58:01;99886.72;;;23.55
74321;BMP280;62738;45.772;4.804;2023-07-13T02:00:28;99876.47;;;23.44
74321;BMP280;62738;45.772;4.804;2023-07-13T02:02:55;99876.41;;;23.64
74321;BMP280;62738;45.772;4.804;2023-07-13T02:05:22;99886.28;;;23.41
74321;BMP280;62738;45.772;4.804;2023-07-13T02:07:49;99879.41;;;23.48
74321;BMP280;62738;45.772;4.804;2023-07-13T02:10:15;99879.56;;;23.52
74321;BMP280;62738;45.772;4.804;2023-07-13T02:12:44;99878.38;;;23.37
74321;BMP280;62738;45.772;4.804;2023-07-13T02:15:11;99872.13;;;23.41
74321;BMP280;62738;45.772;4.804;2023-07-13T02:17:38;99878.97;;;23.34
74321;BMP280;62738;45.772;4.804;2023-07-13T02:20:05;99878.97;;;23.56
74321;BMP280;62738;45.772;4.804;2023-07-13T02:22:32;99868.72;;;23.44
74321;BMP280;62738;45.772;4.804;2023-07-13T02:24:59;99865.53;;;23.34
74321;BMP280;62738;45.772;4.804;2023-07-13T02:27:26;99879.78;;;23.17
74321;BMP280;62738;45.772;4.804;2023-07-13T02:29:53;99874.25;;;23.21
74321;BMP280;62738;45.772;4.804;2023-07-13T02:32:19;99881.13;;;23.35
74321;BMP280;62738;45.772;4.804;2023-07-13T02:34:46;99877.94;;;23.25
74321;BMP280;62738;45.772;4.804;2023-07-13T02:37:13;99879.78;;;23.17
74321;BMP280;62738;45.772;4.804;2023-07-13T02:39:39;99893.59;;;23.07
74321;BMP280;62738;45.772;4.804;2023-07-13T02:42:06;99888.94;;;23.15
74321;BMP280;62738;45.772;4.804;2023-07-13T02:44:33;99883.28;;;23.15
74321;BMP280;62738;45.772;4.804;2023-07-13T02:46:59;99901.59;;;23.12
74321;BMP280;62738;45.772;4.804;2023-07-13T02:49:26;99903.59;;;23.10
74321;BMP280;62738;45.772;4.804;2023-07-13T02:51:53;99896.59;;;23.32
74321;BMP280;62738;45.772;4.804;2023-07-13T02:54:19;99897.81;;;23.27
74321;BMP280;62738;45.772;4.804;2023-07-13T02:56:46;99908.53;;;23.09
74321;BMP280;62738;45.772;4.804;2023-07-13T02:59:13;99916.31;;;23.09
74321;BMP280;62738;45.772;4.804;2023-07-13T03:01:40;99915.00;;;23.12
74321;BMP280;62738;45.772;4.804;2023-07-13T03:04:07;99916.38;;;23.11
74321;BMP280;62738;45.772;4.804;2023-07-13T03:06:34;99913.53;;;22.91
74321;BMP280;62738;45.772;4.804;2023-07-13T03:09:01;99918.69;;;22.96
74321;BMP280;62738;45.772;4.804;2023-07-13T03:11:27;99911.72;;;22.99
74321;BMP280;62738;45.772;4.804;2023-07-13T03:13:54;99909.38;;;23.33
74321;BMP280;62738;45.772;4.804;2023-07-13T03:16:21;99914.91;;;23.10
74321;BMP280;62738;45.772;4.804;2023-07-13T03:18:48;99907.69;;;23.05
74321;BMP280;62738;45.772;4.804;2023-07-13T03:21:15;99910.25;;;23.18
74321;BMP280;62738;45.772;4.804;2023-07-13T03:23:42;99909.78;;;22.84
74321;BMP280;62738;45.772;4.804;2023-07-13T03:26:10;99909.50;;;23.16
74321;BMP280;62738;45.772;4.804;2023-07-13T03:28:37;99908.78;;;23.17
74321;BMP280;62738;45.772;4.804;2023-07-13T03:31:07;99913.28;;;23.24
74321;BMP280;62738;45.772;4.804;2023-07-13T03:33:34;99924.22;;;22.92
74321;BMP280;62738;45.772;4.804;2023-07-13T03:36:02;99914.44;;;22.58
74321;BMP280;62738;45.772;4.804;2023-07-13T03:38:29;99919.97;;;22.54
74321;BMP280;62738;45.772;4.804;2023-07-13T03:40:56;99924.56;;;22.63
74321;BMP280;62738;45.772;4.804;2023-07-13T03:43:22;99925.09;;;22.40
74321;BMP280;62738;45.772;4.804;2023-07-13T03:45:49;99924.75;;;22.50
74321;BMP280;62738;45.772;4.804;2023-07-13T03:48:16;99924.19;;;22.53
74321;BMP280;62738;45.772;4.804;2023-07-13T03:50:43;99915.56;;;22.69
74321;BMP280;62738;45.772;4.804;2023-07-13T03:53:09;99907.06;;;22.69
74321;BMP280;62738;45.772;4.804;2023-07-13T03:55:36;99922.84;;;22.74
74321;BMP280;62738;45.772;4.804;2023-07-13T04:00:55;99925.97;;;22.82
74321;BMP280;62738;45.772;4.804;2023-07-13T04:03:22;99925.50;;;22.89
74321;BMP280;62738;45.772;4.804;2023-07-13T04:05:49;99928.25;;;22.87
74321;BMP280;62738;45.772;4.804;2023-07-13T04:08:15;99944.50;;;22.67
74321;BMP280;62738;45.772;4.804;2023-07-13T04:10:43;99947.31;;;22.48
74321;BMP280;62738;45.772;4.804;2023-07-13T04:13:10;99943.81;;;22.49
74321;BMP280;62738;45.772;4.804;2023-07-13T04:15:36;99954.66;;;22.37
74321;BMP280;62738;45.772;4.804;2023-07-13T04:18:03;99940.53;;;22.37
74321;BMP280;62738;45.772;4.804;2023-07-13T04:20:30;99944.25;;;22.24
74321;BMP280;62738;45.772;4.804;2023-07-13T04:22:56;99944.25;;;22.24
74321;BMP280;62738;45.772;4.804;2023-07-13T04:25:24;99948.66;;;22.46
74321;BMP280;62738;45.772;4.804;2023-07-13T04:27:50;99948.84;;;22.70
74321;BMP280;62738;45.772;4.804;2023-07-13T04:30:18;99951.19;;;22.56
74321;BMP280;62738;45.772;4.804;2023-07-13T04:32:45;99941.66;;;22.48
74321;BMP280;62738;45.772;4.804;2023-07-13T04:35:12;99943.09;;;22.48
74321;BMP280;62738;45.772;4.804;2023-07-13T04:37:40;99935.88;;;22.83
74321;BMP280;62738;45.772;4.804;2023-07-13T04:40:07;99948.88;;;23.10
74321;BMP280;62738;45.772;4.804;2023-07-13T04:42:38;99941.34;;;22.96
74321;BMP280;62738;45.772;4.804;2023-07-13T04:45:08;99952.91;;;22.65
74321;BMP280;62738;45.772;4.804;2023-07-13T04:47:35;99954.25;;;22.64
74321;BMP280;62738;45.772;4.804;2023-07-13T04:50:02;99965.00;;;22.68
74321;BMP280;62738;45.772;4.804;2023-07-13T04:52:29;99954.91;;;22.80
74321;BMP280;62738;45.772;4.804;2023-07-13T04:54:55;99959.19;;;23.01
74321;BMP280;62738;45.772;4.804;2023-07-13T04:57:22;99968.06;;;23.11
74321;BMP280;62738;45.772;4.804;2023-07-13T04:59:49;99967.38;;;23.13
74321;BMP280;62738;45.772;4.804;2023-07-13T05:02:15;99971.88;;;23.20
74321;BMP280;62738;45.772;4.804;2023-07-13T05:04:46;99977.75;;;23.26
74321;BMP280;62738;45.772;4.804;2023-07-13T05:07:14;99973.81;;;23.35
74321;BMP280;62738;45.772;4.804;2023-07-13T05:09:40;99963.00;;;23.49
74321;BMP280;62738;45.772;4.804;2023-07-13T05:12:09;99976.44;;;23.48
74321;BMP280;62738;45.772;4.804;2023-07-13T05:14:36;99983.13;;;23.37
74321;BMP280;62738;45.772;4.804;2023-07-13T05:17:03;99983.72;;;23.14
74321;BMP280;62738;45.772;4.804;2023-07-13T05:19:29;99974.91;;;22.86
74321;BMP280;62738;45.772;4.804;2023-07-13T05:21:56;99979.78;;;22.84
74321;BMP280;62738;45.772;4.804;2023-07-13T05:24:23;99995.09;;;22.96
74321;BMP280;62738;45.772;4.804;2023-07-13T05:26:51;99995.31;;;22.65
74321;BMP280;62738;45.772;4.804;2023-07-13T05:29:20;99988.41;;;22.51
74321;BMP280;62738;45.772;4.804;2023-07-13T05:31:48;99991.59;;;22.61
74321;BMP280;62738;45.772;4.804;2023-07-13T05:34:15;99989.81;;;22.69
74321;BMP280;62738;45.772;4.804;2023-07-13T05:36:41;99986.59;;;22.77
74321;BMP280;62738;45.772;4.804;2023-07-13T05:39:08;100001.34;;;22.56
74321;BMP280;62738;45.772;4.804;2023-07-13T05:41:35;99997.78;;;22.55
74321;BMP280;62738;45.772;4.804;2023-07-13T05:44:02;100008.69;;;22.45
74321;BMP280;62738;45.772;4.804;2023-07-13T05:46:29;99999.91;;;22.37
74321;BMP280;62738;45.772;4.804;2023-07-13T05:48:57;100012.78;;;22.60
74321;BMP280;62738;45.772;4.804;2023-07-13T05:51:23;100013.81;;;22.68
74321;BMP280;62738;45.772;4.804;2023-07-13T05:53:50;100020.56;;;22.96
74321;BMP280;62738;45.772;4.804;2023-07-13T05:56:17;100014.91;;;22.96
74321;BMP280;62738;45.772;4.804;2023-07-13T05:58:43;100021.31;;;23.36
74321;BMP280;62738;45.772;4.804;2023-07-13T06:01:11;100025.09;;;23.43
74321;BMP280;62738;45.772;4.804;2023-07-13T06:03:39;100013.97;;;23.29
74321;BMP280;62738;45.772;4.804;2023-07-13T06:06:07;100013.75;;;23.63
74321;BMP280;62738;45.772;4.804;2023-07-13T06:08:35;100010.69;;;23.98
74321;BMP280;62738;45.772;4.804;2023-07-13T06:11:14;100004.81;;;24.14
74321;BMP280;62738;45.772;4.804;2023-07-13T06:13:41;100008.13;;;24.06
74321;BMP280;62738;45.772;4.804;2023-07-13T06:16:08;100008.75;;;24.04
74321;BMP280;62738;45.772;4.804;2023-07-13T06:18:36;100025.84;;;23.65
74321;BMP280;62738;45.772;4.804;2023-07-13T06:23:34;100034.13;;;24.00
74321;BMP280;62738;45.772;4.804;2023-07-13T06:26:01;100022.53;;;24.36
74321;BMP280;62738;45.772;4.804;2023-07-13T06:28:28;100040.19;;;24.13
74321;BMP280;62738;45.772;4.804;2023-07-13T06:30:56;100028.66;;;24.28
74321;BMP280;62738;45.772;4.804;2023-07-13T06:33:23;100034.59;;;24.15
74321;BMP280;62738;45.772;4.804;2023-07-13T06:35:49;100032.97;;;24.08
74321;BMP280;62738;45.772;4.804;2023-07-13T06:38:16;100034.81;;;24.21
74321;BMP280;62738;45.772;4.804;2023-07-13T06:40:42;100042.63;;;24.00
74321;BMP280;62738;45.772;4.804;2023-07-13T06:43:09;100043.63;;;24.09
74321;BMP280;62738;45.772;4.804;2023-07-13T06:45:41;100044.00;;;24.43
74321;BMP280;62738;45.772;4.804;2023-07-13T06:48:08;100034.94;;;24.25
74321;BMP280;62738;45.772;4.804;2023-07-13T06:50:35;100048.31;;;24.22
74321;BMP280;62738;45.772;4.804;2023-07-13T06:53:02;100045.56;;;24.24
74321;BMP280;62738;45.772;4.804;2023-07-13T06:55:28;100043.41;;;24.46
74321;BMP280;62738;45.772;4.804;2023-07-13T06:57:55;100040.59;;;24.94
74321;BMP280;62738;45.772;4.804;2023-07-13T07:00:21;100041.22;;;24.90
74321;BMP280;62738;45.772;4.804;2023-07-13T07:02:48;100044.00;;;24.43
74321;BMP280;62738;45.772;4.804;2023-07-13T07:05:15;100053.22;;;24.43
74321;BMP280;62738;45.772;4.804;2023-07-13T07:07:42;100051.47;;;24.32
74321;BMP280;62738;45.772;4.804;2023-07-13T07:10:08;100050.88;;;24.36
74321;BMP280;62738;45.772;4.804;2023-07-13T07:12:35;100048.50;;;24.28
74321;BMP280;62738;45.772;4.804;2023-07-13T07:15:02;100049.31;;;24.31
74321;BMP280;62738;45.772;4.804;2023-07-13T07:17:29;100052.28;;;23.72
74321;BMP280;62738;45.772;4.804;2023-07-13T07:19:55;100037.75;;;23.81
74321;BMP280;62738;45.772;4.804;2023-07-13T07:22:22;100047.66;;;24.02
74321;BMP280;62738;45.772;4.804;2023-07-13T07:24:49;100048.63;;;24.32
74321;BMP280;62738;45.772;4.804;2023-07-13T07:27:15;100054.41;;;24.58
74321;BMP280;62738;45.772;4.804;2023-07-13T07:29:45;100043.25;;;24.42
74321;BMP280;62738;45.772;4.804;2023-07-13T07:32:32;100044.56;;;24.61
74321;BMP280;62738;45.772;4.804;2023-07-13T07:35:01;100053.66;;;24.34
74321;BMP280;62738;45.772;4.804;2023-07-13T07:37:28;100057.84;;;24.11
74321;BMP280;62738;45.772;4.804;2023-07-13T07:39:57;100052.91;;;24.12
74321;BMP280;62738;45.772;4.804;2023-07-13T07:42:28;100061.75;;;24.00
74321;BMP280;62738;45.772;4.804;2023-07-13T07:44:55;100046.94;;;24.23
74321;BMP280;62738;45.772;4.804;2023-07-13T07:47:22;100050.66;;;24.51
74321;BMP280;62738;45.772;4.804;2023-07-13T07:49:50;100051.91;;;25.18
74321;BMP280;62738;45.772;4.804;2023-07-13T07:52:17;100060.66;;;25.26
74321;BMP280;62738;45.772;4.804;2023-07-13T07:54:43;100052.09;;;25.00
74321;BMP280;62738;45.772;4.804;2023-07-13T07:57:13;100058.84;;;24.87
74321;BMP280;62738;45.772;4.804;2023-07-13T07:59:42;100055.41;;;24.90
74321;BMP280;62738;45.772;4.804;2023-07-13T08:02:12;100056.13;;;24.91
74321;BMP280;62738;45.772;4.804;2023-07-13T08:04:58;100057.94;;;25.30
74321;BMP280;62738;45.772;4.804;2023-07-13T08:07:30;100059.41;;;25.33
74321;BMP280;62738;45.772;4.804;2023-07-13T08:09:57;100051.41;;;24.99
74321;BMP280;62738;45.772;4.804;2023-07-13T08:12:24;100050.03;;;25.26
74321;BMP280;62738;45.772;4.804;2023-07-13T08:14:54;100056.16;;;25.17
74321;BMP280;62738;45.772;4.804;2023-07-13T08:17:24;100053.81;;;25.35
74321;BMP280;62738;45.772;4.804;2023-07-13T08:19:51;100042.72;;;25.45
74321;BMP280;62738;45.772;4.804;2023-07-13T08:22:18;100048.88;;;25.11
74321;BMP280;62738;45.772;4.804;2023-07-13T08:24:44;100043.41;;;25.18
74321;BMP280;62738;45.772;4.804;2023-07-13T08:27:11;100059.31;;;25.29
74321;BMP280;62738;45.772;4.804;2023-07-13T08:29:38;100051.28;;;25.47
74321;BMP280;62738;45.772;4.804;2023-07-13T08:32:06;100054.03;;;25.43
74321;BMP280;62738;45.772;4.804;2023-07-13T08:34:36;100053.97;;;25.96
74321;BMP280;62738;45.772;4.804;2023-07-13T08:37:03;100048.91;;;26.22
74321;BMP280;62738;45.772;4.804;2023-07-13T08:39:30;100051.25;;;26.30
74321;BMP280;62738;45.772;4.804;2023-07-13T08:42:02;100047.47;;;26.85
74321;BMP280;62738;45.772;4.804;2023-07-13T08:44:40;100049.13;;;27.34
74321;BMP280;62738;45.772;4.804;2023-07-13T08:47:11;100046.53;;;26.74
74321;BMP280;62738;45.772;4.804;2023-07-13T08:49:40;100052.66;;;26.95
74321;BMP280;62738;45.772;4.804;2023-07-13T08:52:24;100061.66;;;26.49
74321;BMP280;62738;45.772;4.804;2023-07-13T08:54:55;100064.94;;;26.38
74321;BMP280;62738;45.772;4.804;2023-07-13T08:57:31;100068.38;;;26.98
74321;BMP280;62738;45.772;4.804;2023-07-13T08:59:59;100071.16;;;26.00
74321;BMP280;62738;45.772;4.804;2023-07-13T09:02:40;100066.97;;;25.76
74321;BMP280;62738;45.772;4.804;2023-07-13T09:05:24;100066.44;;;26.72
74321;BMP280;62738;45.772;4.804;2023-07-13T09:10:49;100067.47;;;27.25
74321;BMP280;62738;45.772;4.804;2023-07-13T09:16:32;100084.88;;;27.03
74321;BMP280;62738;45.772;4.804;2023-07-13T09:19:02;100080.56;;;27.02
74321;BMP280;62738;45.772;4.804;2023-07-13T09:21:37;100087.13;;;27.47
74321;BMP280;62738;45.772;4.804;2023-07-13T09:24:45;100073.06;;;27.57
74321;BMP280;62738;45.772;4.804;2023-07-13T09:27:38;100071.25;;;27.75
74321;BMP280;62738;45.772;4.804;2023-07-13T09:32:45;100085.00;;;28.33
74321;BMP280;62738;45.772;4.804;2023-07-13T09:35:19;100090.16;;;27.57
74321;BMP280;62738;45.772;4.804;2023-07-13T09:37:46;100088.03;;;27.19
74321;BMP280;62738;45.772;4.804;2023-07-13T09:40:55;100072.16;;;27.86
74321;BMP280;62738;45.772;4.804;2023-07-13T09:43:21;100066.63;;;28.44
74321;BMP280;62738;45.772;4.804;2023-07-13T09:45:48;100072.44;;;29.10
74321;BMP280;62738;45.772;4.804;2023-07-13T09:48:16;100076.78;;;29.15
74321;BMP280;62738;45.772;4.804;2023-07-13T09:50:44;100077.69;;;28.72
74321;BMP280;62738;45.772;4.804;2023-07-13T09:53:12;100075.44;;;28.14
74321;BMP280;62738;45.772;4.804;2023-07-13T09:55:41;100078.47;;;28.24
74321;BMP280;62738;45.772;4.804;2023-07-13T10:00:42;100082.72;;;28.23
74321;BMP280;62738;45.772;4.804;2023-07-13T10:03:23;100085.00;;;27.87
74321;BMP280;62738;45.772;4.804;2023-07-13T10:05:51;100087.88;;;28.35
74321;BMP280;62738;45.772;4.804;2023-07-13T10:08:24;100088.81;;;27.60
74321;BMP280;62738;45.772;4.804;2023-07-13T10:11:12;100084.50;;;27.59
74321;BMP280;62738;45.772;4.804;2023-07-13T10:13:48;100089.38;;;28.40
74321;BMP280;62738;45.772;4.804;2023-07-13T10:16:16;100084.63;;;28.56
74321;BMP280;62738;45.772;4.804;2023-07-13T10:18:47;100088.81;;;28.49
74321;BMP280;62738;45.772;4.804;2023-07-13T10:21:21;100082.22;;;28.91
74321;BMP280;62738;45.772;4.804;2023-07-13T10:24:16;100076.16;;;29.23
74321;BMP280;62738;45.772;4.804;2023-07-13T10:26:52;100088.84;;;29.07
74321;BMP280;62738;45.772;4.804;2023-07-13T10:29:21;100088.38;;;28.71
74321;BMP280;62738;45.772;4.804;2023-07-13T10:31:49;100072.59;;;28.66
74321;BMP280;62738;45.772;4.804;2023-07-13T10:34:16;100084.34;;;28.36
74321;BMP280;62738;45.772;4.804;2023-07-13T10:36:46;100071.00;;;29.09
74321;BMP280;62738;45.772;4.804;2023-07-13T10:39:26;100070.25;;;29.78
74321;BMP280;62738;45.772;4.804;2023-07-13T10:41:56;100079.56;;;29.81
74321;BMP280;62738;45.772;4.804;2023-07-13T10:44:27;100078.38;;;29.32
74321;BMP280;62738;45.772;4.804;2023-07-13T10:47:05;100061.75;;;29.91
74321;BMP280;62738;45.772;4.804;2023-07-13T10:49:33;100062.22;;;29.61
74321;BMP280;62738;45.772;4.804;2023-07-13T10:52:02;100052.97;;;29.66
74321;BMP280;62738;45.772;4.804;2023-07-13T10:57:16;100035.59;;;30.40
74321;BMP280;62738;45.772;4.804;2023-07-13T10:59:47;100024.91;;;30.55
74321;BMP280;62738;45.772;4.804;2023-07-13T11:02:26;100029.34;;;31.13
74321;BMP280;62738;45.772;4.804;2023-07-13T11:04:55;100054.38;;;30.88
74321;BMP280;62738;45.772;4.804;2023-07-13T11:09:54;100053.06;;;29.76
74321;BMP280;62738;45.772;4.804;2023-07-13T11:22:44;100050.44;;;30.17
74321;BMP280;62738;45.772;4.804;2023-07-13T11:28:14;100045.88;;;28.97
74321;BMP280;62738;45.772;4.804;2023-07-13T11:33:22;100043.72;;;28.40
74321;BMP280;62738;45.772;4.804;2023-07-13T11:36:18;100034.25;;;28.81
74321;BMP280;62738;45.772;4.804;2023-07-13T11:41:34;100018.56;;;29.56
74321;BMP280;62738;45.772;4.804;2023-07-13T11:44:14;100006.72;;;30.02
74321;BMP280;62738;45.772;4.804;2023-07-13T11:46:53;100009.56;;;29.96
74321;BMP280;62738;45.772;4.804;2023-07-13T11:49:23;100022.16;;;29.53
74321;BMP280;62738;45.772;4.804;2023-07-13T11:51:51;100008.22;;;30.09
74321;BMP280;62738;45.772;4.804;2023-07-13T11:54:29;100008.88;;;30.00
74321;BMP280;62738;45.772;4.804;2023-07-13T11:57:02;99997.44;;;30.02
74321;BMP280;62738;45.772;4.804;2023-07-13T11:59:33;99997.09;;;29.47
74321;BMP280;62738;45.772;4.804;2023-07-13T12:02:16;100012.72;;;29.38
74321;BMP280;62738;45.772;4.804;2023-07-13T12:04:44;100008.53;;;29.51
74321;BMP280;62738;45.772;4.804;2023-07-13T12:07:19;99993.97;;;30.13
74321;BMP280;62738;45.772;4.804;2023-07-13T12:09:46;100005.25;;;29.93
74321;BMP280;62738;45.772;4.804;2023-07-13T12:12:21;99998.25;;;30.18
74321;BMP280;62738;45.772;4.804;2023-07-13T12:14:52;99999.22;;;31.08
74321;BMP280;62738;45.772;4.804;2023-07-13T12:17:23;100002.03;;;30.67
74321;BMP280;62738;45.772;4.804;2023-07-13T12:19:52;100004.50;;;29.89
74321;BMP280;62738;45.772;4.804;2023-07-13T12:22:20;99993.25;;;30.19
74321;BMP280;62738;45.772;4.804;2023-07-13T12:24:47;99998.69;;;29.74
74321;BMP280;62738;45.772;4.804;2023-07-13T12:27:20;100011.91;;;29.30
74321;BMP280;62738;45.772;4.804;2023-07-13T12:32:24;100003.84;;;29.96
74321;BMP280;62738;45.772;4.804;2023-07-13T12:34:57;99992.34;;;29.88
74321;BMP280;62738;45.772;4.804;2023-07-13T12:37:24;99982.44;;;30.01
74321;BMP280;62738;45.772;4.804;2023-07-13T12:39:51;99994.00;;;30.33
74321;BMP280;62738;45.772;4.804;2023-07-13T12:42:28;99983.31;;;30.38
74321;BMP280;62738;45.772;4.804;2023-07-13T12:47:42;99996.81;;;30.19
74321;BMP280;62738;45.772;4.804;2023-07-13T12:52:43;100003.38;;;30.48
74321;BMP280;62738;45.772;4.804;2023-07-13T12:55:18;99985.56;;;30.66
74321;BMP280;62738;45.772;4.804;2023-07-13T12:57:53;99998.53;;;31.29
74321;BMP280;62738;45.772;4.804;2023-07-13T13:00:30;99997.81;;;31.41
74321;BMP280;62738;45.772;4.804;2023-07-13T13:03:51;99984.19;;;31.57
74321;BMP280;62738;45.772;4.804;2023-07-13T13:05:58;99994.94;;;31.61
74321;BMP280;62738;45.772;4.804;2023-07-13T13:08:26;99982.75;;;31.28
74321;BMP280;62738;45.772;4.804;2023-07-13T13:10:52;99987.38;;;29.93
74321;BMP280;62738;45.772;4.804;2023-07-13T13:13:19;99988.63;;;29.65
74321;BMP280;62738;45.772;4.804;2023-07-13T13:15:46;99990.84;;;29.77
74321;BMP280;62738;45.772;4.804;2023-07-13T13:18:21;99988.34;;;30.48
74321;BMP280;62738;45.772;4.804;2023-07-13T13:20:50;99974.16;;;30.94
74321;BMP280;62738;45.772;4.804;2023-07-13T13:23:19;99977.69;;;31.87
74321;BMP280;62738;45.772;4.804;2023-07-13T13:25:47;99973.31;;;32.00
74321;BMP280;62738;45.772;4.804;2023-07-13T13:28:20;99976.88;;;32.07
74321;BMP280;62738;45.772;4.804;2023-07-13T13:30:48;99970.41;;;32.08
74321;BMP280;62738;45.772;4.804;2023-07-13T13:33:17;99970.56;;;31.28
74321;BMP280;62738;45.772;4.804;2023-07-13T13:35:44;99950.50;;;31.28
74321;BMP280;62738;45.772;4.804;2023-07-13T13:38:12;99960.19;;;29.94
74321;BMP280;62738;45.772;4.804;2023-07-13T13:40:42;99957.56;;;30.38
74321;BMP280;62738;45.772;4.804;2023-07-13T13:43:21;99954.75;;;30.60
74321;BMP280;62738;45.772;4.804;2023-07-13T13:45:47;99960.50;;;30.78
74321;BMP280;62738;45.772;4.804;2023-07-13T13:48:20;99961.97;;;30.83
74321;BMP280;62738;45.772;4.804;2023-07-13T13:50:48;99955.50;;;31.43
74321;BMP280;62738;45.772;4.804;2023-07-13T13:53:15;99959.09;;;31.60
74321;BMP280;62738;45.772;4.804;2023-07-13T13:55:42;99959.09;;;32.97
74321;BMP280;62738;45.772;4.804;2023-07-13T13:58:09;99954.53;;;34.89
74321;BMP280;62738;45.772;4.804;2023-07-13T14:00:37;99963.47;;;36.22
74321;BMP280;62738;45.772;4.804;2023-07-13T14:03:15;99963.13;;;36.94
74321;BMP280;62738;45.772;4.804;2023-07-13T14:05:43;99970.16;;;38.03
74321;BMP280;62738;45.772;4.804;2023-07-13T14:08:20;99959.03;;;38.35
74321;BMP280;62738;45.772;4.804;2023-07-13T14:10:52;99952.72;;;37.81
74321;BMP280;62738;45.772;4.804;2023-07-13T14:13:26;99951.41;;;35.79
74321;BMP280;62738;45.772;4.804;2023-07-13T14:15:55;99952.78;;;34.66
74321;BMP280;62738;45.772;4.804;2023-07-13T14:18:22;99962.13;;;34.15
74321;BMP280;62738;45.772;4.804;2023-07-13T14:20:50;99971.50;;;33.57
74321;BMP280;62738;45.772;4.804;2023-07-13T14:23:19;99952.97;;;35.74
74321;BMP280;62738;45.772;4.804;2023-07-13T14:25:46;99953.31;;;36.54
74321;BMP280;62738;45.772;4.804;2023-07-13T14:28:23;99952.47;;;37.41
74321;BMP280;62738;45.772;4.804;2023-07-13T14:30:51;99950.94;;;36.62
74321;BMP280;62738;45.772;4.804;2023-07-13T14:33:18;99954.50;;;37.45
74321;BMP280;62738;45.772;4.804;2023-07-13T14:35:45;99945.19;;;35.99
74321;BMP280;62738;45.772;4.804;2023-07-13T14:38:17;99939.22;;;35.01
74321;BMP280;62738;45.772;4.804;2023-07-13T14:40:44;99966.69;;;34.51
74321;BMP280;62738;45.772;4.804;2023-07-13T14:43:12;99950.41;;;35.58
74321;BMP280;62738;45.772;4.804;2023-07-13T14:45:48;99950.53;;;36.79
74321;BMP280;62738;45.772;4.804;2023-07-13T14:48:20;99942.47;;;38.08
74321;BMP280;62738;45.772;4.804;2023-07-13T14:50:53;99933.75;;;35.60
74321;BMP280;62738;45.772;4.804;2023-07-13T14:53:20;99948.13;;;34.40
74321;BMP280;62738;45.772;4.804;2023-07-13T14:55:46;99953.41;;;32.91
74321;BMP280;62738;45.772;4.804;2023-07-13T14:58:13;99965.16;;;32.57
74321;BMP280;62738;45.772;4.804;2023-07-13T15:00:40;99949.53;;;33.21
74321;BMP280;62738;45.772;4.804;2023-07-13T15:03:17;99938.47;;;32.73
74321;BMP280;62738;45.772;4.804;2023-07-13T15:05:48;99944.34;;;32.53
74321;BMP280;62738;45.772;4.804;2023-07-13T15:08:15;99951.44;;;32.64
74321;BMP280;62738;45.772;4.804;2023-07-13T15:10:42;99957.22;;;34.08